West Virginia — KSKW — position and weather

sailwx.info

Track history (hours):
 
Tides and Currents Weather Stations Pressure Air Temp Water Temp Dewpoint Dewpoint Depression Visibility Wind Speed Wind Dir Waves Ship Positions

West Virginia

Owner: Crowley Petroleum Services, Inc., Jacksonville, FL. More information available from US FCC via Universal Licensing System and Coast Guard Vessel Documentation Center.

Last reported at 2018-Jun-17 09:12 UTC. Time now 2018-Jun-20 09:28 UTC.
Position N 29°10' W 093°40'.

Length 183 m; draft 9.8 m.

Type: Tanker. MMSI: 338158000.

Date/timePositionNaut miles runAvg speedWind from/ knotsBaromVisibWave heightAir tempDewpointWater temp
2018-Jun-17 09:12N 29°10' W 093°40'411.1
2018-Jun-17 08:52N 29°14' W 093°39'410.9
2018-Jun-17 08:29N 29°18' W 093°39'510.9
2018-Jun-17 08:00N 29°23' W 093°40'611.7
2018-Jun-17 07:31N 29°29' W 093°40'611.8
2018-Jun-17 07:01N 29°33' W 093°45'5 9.0
2018-Jun-17 06:30N 29°36' W 093°48'612.6
2018-Jun-17 06:01N 29°42' W 093°51'510.0
2018-Jun-17 05:30N 29°46' W 093°55'5 9.1
2018-Jun-17 05:00N 29°50' W 093°57'3 6.2
2018-Jun-17 04:31N 29°52' W 093°56'3 6.8
2018-Jun-17 04:01N 29°55' W 093°53'4 7.3
2018-Jun-17 03:31N 29°58' W 093°51'3 6.5
2018-Jun-17 03:00N 29°59' W 093°55'3 6.0
2018-Jun-17 02:30N 30°01' W 093°58'3 5.7
2018-Jun-17 02:01N 30°01' W 094°01'1 2.8
2018-Jun-17 01:30N 30°02' W 094°02'0 0.0
2018-Jun-17 01:00N 30°02' W 094°02'0 0.0
2018-Jun-17 00:30N 30°02' W 094°02'0 0.0
2018-Jun-17 00:00N 30°02' W 094°02'0 0.0
2018-Jun-16 23:30N 30°02' W 094°02'0 0.0
2018-Jun-16 23:00N 30°02' W 094°02'0 0.0
2018-Jun-16 22:30N 30°02' W 094°02'0 0.0
2018-Jun-16 22:00N 30°02' W 094°02'0 0.0
2018-Jun-16 21:30N 30°02' W 094°02'0 0.0
2018-Jun-16 21:00N 30°02' W 094°02'0 0.0
2018-Jun-16 20:30N 30°02' W 094°02'0 0.0
2018-Jun-16 20:00N 30°02' W 094°02'0 0.0
2018-Jun-16 19:30N 30°02' W 094°02'0 0.0
2018-Jun-16 19:00N 30°02' W 094°02'0 0.0
2018-Jun-16 18:30N 30°02' W 094°02'0 0.0
2018-Jun-16 18:00N 30°02' W 094°02'0 0.0
2018-Jun-16 17:30N 30°02' W 094°02'0 0.0
2018-Jun-16 17:00N 30°02' W 094°02'0 0.0
2018-Jun-16 16:30N 30°02' W 094°02'0 0.0
2018-Jun-16 16:00N 30°02' W 094°02'0 0.0
2018-Jun-16 15:30N 30°02' W 094°02'0 0.0
2018-Jun-16 15:00N 30°02' W 094°02'0 0.0
2018-Jun-16 14:30N 30°02' W 094°02'0 0.0
2018-Jun-16 14:00N 30°02' W 094°02'0 0.0
2018-Jun-16 13:30N 30°02' W 094°02'0 0.0
2018-Jun-16 13:00N 30°02' W 094°02'0 0.0
2018-Jun-16 12:30N 30°02' W 094°02'0 0.0
2018-Jun-16 12:00N 30°02' W 094°02'0 0.0
2018-Jun-16 11:30N 30°02' W 094°02'0 0.0
2018-Jun-16 11:00N 30°02' W 094°02'0 0.0
2018-Jun-16 10:30N 30°02' W 094°02'0 0.0
2018-Jun-16 10:00N 30°02' W 094°02'0 0.0
2018-Jun-16 09:30N 30°02' W 094°02'0 0.0
2018-Jun-16 09:00N 30°02' W 094°02'0 0.0
2018-Jun-16 08:30N 30°02' W 094°02'0 0.0
2018-Jun-16 08:00N 30°02' W 094°02'0 0.0
2018-Jun-16 07:30N 30°02' W 094°02'0 0.0
2018-Jun-16 07:00N 30°02' W 094°02'0 0.0
2018-Jun-16 06:30N 30°02' W 094°02'0 0.0
2018-Jun-16 06:00N 30°02' W 094°02'0 0.0
2018-Jun-16 05:30N 30°02' W 094°02'0 0.0
2018-Jun-16 05:00N 30°02' W 094°02'0 0.0
2018-Jun-16 04:30N 30°02' W 094°02'0 0.0
2018-Jun-16 04:00N 30°02' W 094°02'0 0.0
2018-Jun-16 03:30N 30°02' W 094°02'0 0.0
2018-Jun-16 03:00N 30°02' W 094°02'0 0.0
2018-Jun-16 02:30N 30°02' W 094°02'0 0.0
2018-Jun-16 02:00N 30°02' W 094°02'0 0.0
2018-Jun-16 01:30N 30°02' W 094°02'0 0.0
2018-Jun-16 01:00N 30°02' W 094°02'0 0.0
2018-Jun-16 00:30N 30°02' W 094°02'0 0.0
2018-Jun-16 00:00N 30°02' W 094°02'0 0.0
2018-Jun-15 23:30N 30°02' W 094°02'0 0.0
2018-Jun-15 23:00N 30°02' W 094°02'0 0.0
2018-Jun-15 22:30N 30°02' W 094°02'0 0.0
2018-Jun-15 22:00N 30°02' W 094°02'0 0.0
2018-Jun-15 21:30N 30°02' W 094°02'0 0.0
2018-Jun-15 21:00N 30°02' W 094°02'0 0.0
2018-Jun-15 20:30N 30°02' W 094°02'0 0.0
2018-Jun-15 20:00N 30°02' W 094°02'0 0.0
2018-Jun-15 19:30N 30°02' W 094°02'0 0.0
2018-Jun-15 19:00N 30°02' W 094°02'0 0.0
2018-Jun-15 18:30N 30°02' W 094°02'0 0.0
2018-Jun-15 18:00N 30°02' W 094°02'0 0.0
2018-Jun-15 17:30N 30°02' W 094°02'0 0.0
2018-Jun-15 17:00N 30°02' W 094°02'0 0.0
2018-Jun-15 16:30N 30°02' W 094°02'0 0.0
2018-Jun-15 16:00N 30°02' W 094°02'0 0.0
2018-Jun-15 15:30N 30°02' W 094°02'0 0.0
2018-Jun-15 15:00N 30°02' W 094°02'0 0.0
2018-Jun-15 14:30N 30°02' W 094°02'0 0.0
2018-Jun-15 14:00N 30°02' W 094°02'0 0.0
2018-Jun-15 13:30N 30°02' W 094°02'0 0.0
2018-Jun-15 13:00N 30°02' W 094°02'0 0.0
2018-Jun-15 12:30N 30°02' W 094°02'0 0.0
2018-Jun-15 12:00N 30°02' W 094°02'0 0.0
2018-Jun-15 11:30N 30°02' W 094°02'0 0.0
2018-Jun-15 11:00N 30°02' W 094°02'0 0.0
2018-Jun-15 10:30N 30°02' W 094°02'0 0.0
2018-Jun-15 10:00N 30°02' W 094°02'0 0.0
2018-Jun-15 09:30N 30°02' W 094°02'0 0.0
2018-Jun-15 09:00N 30°02' W 094°02'0 0.0
2018-Jun-15 08:30N 30°02' W 094°02'0 0.0
2018-Jun-15 08:00N 30°02' W 094°02'0 0.0
2018-Jun-15 07:30N 30°02' W 094°02'0 0.0
2018-Jun-15 07:00N 30°02' W 094°02'0 0.0
2018-Jun-15 06:30N 30°02' W 094°02'0 0.0
2018-Jun-15 06:00N 30°02' W 094°02'0 0.0
2018-Jun-15 05:30N 30°02' W 094°02'0 0.0
2018-Jun-15 05:00N 30°02' W 094°02'0 0.0
2018-Jun-15 04:30N 30°02' W 094°02'0 0.0
2018-Jun-15 04:00N 30°02' W 094°02'0 0.0
2018-Jun-15 03:30N 30°02' W 094°02'0 0.2
2018-Jun-15 03:00N 30°02' W 094°02'1 2.8
2018-Jun-15 02:30N 30°01' W 094°01'3 6.0
2018-Jun-15 02:01N 30°01' W 093°58'3 6.7
2018-Jun-15 01:31N 29°59' W 093°54'3 5.9
2018-Jun-15 01:00N 29°57' W 093°52'4 8.4
2018-Jun-15 00:30N 29°54' W 093°54'3 6.7
2018-Jun-15 00:01N 29°51' W 093°57'3 6.9
2018-Jun-14 23:31N 29°48' W 093°57'4 7.8
2018-Jun-14 23:01N 29°45' W 093°54'4 8.8
2018-Jun-14 22:30N 29°42' W 093°51'612.5
2018-Jun-14 22:01N 29°36' W 093°48'612.7
2018-Jun-14 21:30N 29°31' W 093°43'612.5
2018-Jun-14 21:00N 29°26' W 093°40'  
2018-Jun-09 05:24N 28°54' W 094°15'511.9
2018-Jun-09 04:59N 28°56' W 094°21'5 9.5
2018-Jun-09 04:26N 28°60' W 094°25'1210.8
2018-Jun-09 03:19N 29°11' W 094°30'411.8
2018-Jun-09 03:00N 29°14' W 094°33'510.8
2018-Jun-09 02:30N 29°17' W 094°37'611.6
2018-Jun-09 02:00N 29°21' W 094°43'612.0
2018-Jun-09 01:30N 29°22' W 094°49'3 6.7
2018-Jun-09 01:00N 29°23' W 094°53'1 0.0
2018-Jun-08 13:30N 29°22' W 094°53'0 0.0
2018-Jun-08 12:57N 29°22' W 094°53'0 0.0
2018-Jun-08 12:21N 29°22' W 094°53'0 0.0
2018-Jun-08 11:45N 29°22' W 094°53'0 0.0
2018-Jun-08 11:27N 29°22' W 094°53'0 0.0
2018-Jun-08 10:57N 29°22' W 094°53'0 0.0
2018-Jun-08 10:27N 29°22' W 094°53'0 0.0
2018-Jun-08 09:51N 29°22' W 094°53'0 0.0
2018-Jun-08 09:21N 29°22' W 094°53'0 0.0
2018-Jun-08 08:57N 29°22' W 094°53'0 0.0
2018-Jun-08 08:24N 29°22' W 094°53'0 0.0
2018-Jun-08 07:09N 29°22' W 094°53'0 0.0
2018-Jun-08 06:51N 29°22' W 094°53'0 0.0
2018-Jun-08 05:21N 29°22' W 094°53'0 0.0
2018-Jun-08 04:51N 29°22' W 094°53'0 0.0
2018-Jun-08 04:27N 29°22' W 094°53'0 0.0
2018-Jun-08 03:57N 29°22' W 094°53'0 0.0
2018-Jun-08 03:21N 29°22' W 094°53'0 0.0
2018-Jun-08 02:03N 29°22' W 094°53'0 0.0
2018-Jun-08 01:48N 29°22' W 094°53'0 0.0
2018-Jun-08 01:06N 29°22' W 094°53'0 0.0
2018-Jun-08 00:45N 29°22' W 094°53'0 0.0
2018-Jun-07 23:33N 29°22' W 094°53'0 0.0
2018-Jun-07 23:21N 29°22' W 094°53'0 0.0
2018-Jun-07 22:57N 29°22' W 094°53'0 0.0
2018-Jun-07 22:27N 29°22' W 094°53'0 0.0
2018-Jun-07 19:51N 29°22' W 094°53'0 0.0
2018-Jun-07 19:27N 29°22' W 094°53'0 0.0
2018-Jun-07 18:51N 29°22' W 094°53'0 0.0
2018-Jun-07 16:42N 29°22' W 094°53'0 0.0
2018-Jun-07 15:15N 29°22' W 094°53'0 0.0
2018-Jun-07 14:57N 29°22' W 094°53'0 0.0
2018-Jun-07 13:57N 29°22' W 094°53'0 0.0
2018-Jun-07 13:30N 29°22' W 094°53'0 0.0
2018-Jun-07 12:57N 29°22' W 094°53'0 0.0
2018-Jun-07 12:21N 29°22' W 094°53'0 0.0
2018-Jun-07 11:54N 29°22' W 094°53'0 0.0
2018-Jun-07 11:30N 29°22' W 094°53'0 0.0
2018-Jun-07 10:54N 29°22' W 094°53'0 0.0
2018-Jun-07 10:27N 29°22' W 094°53'0 0.0
2018-Jun-07 09:57N 29°22' W 094°53'0 0.0
2018-Jun-07 09:24N 29°22' W 094°53'  
Track history (hours):
 
Tides and Currents Weather Stations Pressure Air Temp Water Temp Dewpoint Dewpoint Depression Visibility Wind Speed Wind Dir Waves Ship Positions

West Virginia

Owner: Crowley Petroleum Services, Inc., Jacksonville, FL. More information available from US FCC via Universal Licensing System and Coast Guard Vessel Documentation Center.

Last reported at 2018-Jun-17 09:12 UTC. Time now 2018-Jun-20 09:28 UTC.
Position N 29°10' W 093°40'.

Length 183 m; draft 9.8 m.

Type: Tanker. MMSI: 338158000.

Date/timePositionNaut miles runAvg speedWind from/ knotsBaromVisibWave heightAir tempDewpointWater temp
2018-Jun-17 09:12N 29°10' W 093°40'411.1
2018-Jun-17 08:52N 29°14' W 093°39'410.9
2018-Jun-17 08:29N 29°18' W 093°39'510.9
2018-Jun-17 08:00N 29°23' W 093°40'611.7
2018-Jun-17 07:31N 29°29' W 093°40'611.8
2018-Jun-17 07:01N 29°33' W 093°45'5 9.0
2018-Jun-17 06:30N 29°36' W 093°48'612.6
2018-Jun-17 06:01N 29°42' W 093°51'510.0
2018-Jun-17 05:30N 29°46' W 093°55'5 9.1
2018-Jun-17 05:00N 29°50' W 093°57'3 6.2
2018-Jun-17 04:31N 29°52' W 093°56'3 6.8
2018-Jun-17 04:01N 29°55' W 093°53'4 7.3
2018-Jun-17 03:31N 29°58' W 093°51'3 6.5
2018-Jun-17 03:00N 29°59' W 093°55'3 6.0
2018-Jun-17 02:30N 30°01' W 093°58'3 5.7
2018-Jun-17 02:01N 30°01' W 094°01'1 2.8
2018-Jun-17 01:30N 30°02' W 094°02'0 0.0
2018-Jun-17 01:00N 30°02' W 094°02'0 0.0
2018-Jun-17 00:30N 30°02' W 094°02'0 0.0
2018-Jun-17 00:00N 30°02' W 094°02'0 0.0
2018-Jun-16 23:30N 30°02' W 094°02'0 0.0
2018-Jun-16 23:00N 30°02' W 094°02'0 0.0
2018-Jun-16 22:30N 30°02' W 094°02'0 0.0
2018-Jun-16 22:00N 30°02' W 094°02'0 0.0
2018-Jun-16 21:30N 30°02' W 094°02'0 0.0
2018-Jun-16 21:00N 30°02' W 094°02'0 0.0
2018-Jun-16 20:30N 30°02' W 094°02'0 0.0
2018-Jun-16 20:00N 30°02' W 094°02'0 0.0
2018-Jun-16 19:30N 30°02' W 094°02'0 0.0
2018-Jun-16 19:00N 30°02' W 094°02'0 0.0
2018-Jun-16 18:30N 30°02' W 094°02'0 0.0
2018-Jun-16 18:00N 30°02' W 094°02'0 0.0
2018-Jun-16 17:30N 30°02' W 094°02'0 0.0
2018-Jun-16 17:00N 30°02' W 094°02'0 0.0
2018-Jun-16 16:30N 30°02' W 094°02'0 0.0
2018-Jun-16 16:00N 30°02' W 094°02'0 0.0
2018-Jun-16 15:30N 30°02' W 094°02'0 0.0
2018-Jun-16 15:00N 30°02' W 094°02'0 0.0
2018-Jun-16 14:30N 30°02' W 094°02'0 0.0
2018-Jun-16 14:00N 30°02' W 094°02'0 0.0
2018-Jun-16 13:30N 30°02' W 094°02'0 0.0
2018-Jun-16 13:00N 30°02' W 094°02'0 0.0
2018-Jun-16 12:30N 30°02' W 094°02'0 0.0
2018-Jun-16 12:00N 30°02' W 094°02'0 0.0
2018-Jun-16 11:30N 30°02' W 094°02'0 0.0
2018-Jun-16 11:00N 30°02' W 094°02'0 0.0
2018-Jun-16 10:30N 30°02' W 094°02'0 0.0
2018-Jun-16 10:00N 30°02' W 094°02'0 0.0
2018-Jun-16 09:30N 30°02' W 094°02'0 0.0
2018-Jun-16 09:00N 30°02' W 094°02'0 0.0
2018-Jun-16 08:30N 30°02' W 094°02'0 0.0
2018-Jun-16 08:00N 30°02' W 094°02'0 0.0
2018-Jun-16 07:30N 30°02' W 094°02'0 0.0
2018-Jun-16 07:00N 30°02' W 094°02'0 0.0
2018-Jun-16 06:30N 30°02' W 094°02'0 0.0
2018-Jun-16 06:00N 30°02' W 094°02'0 0.0
2018-Jun-16 05:30N 30°02' W 094°02'0 0.0
2018-Jun-16 05:00N 30°02' W 094°02'0 0.0
2018-Jun-16 04:30N 30°02' W 094°02'0 0.0
2018-Jun-16 04:00N 30°02' W 094°02'0 0.0
2018-Jun-16 03:30N 30°02' W 094°02'0 0.0
2018-Jun-16 03:00N 30°02' W 094°02'0 0.0
2018-Jun-16 02:30N 30°02' W 094°02'0 0.0
2018-Jun-16 02:00N 30°02' W 094°02'0 0.0
2018-Jun-16 01:30N 30°02' W 094°02'0 0.0
2018-Jun-16 01:00N 30°02' W 094°02'0 0.0
2018-Jun-16 00:30N 30°02' W 094°02'0 0.0
2018-Jun-16 00:00N 30°02' W 094°02'0 0.0
2018-Jun-15 23:30N 30°02' W 094°02'0 0.0
2018-Jun-15 23:00N 30°02' W 094°02'0 0.0
2018-Jun-15 22:30N 30°02' W 094°02'0 0.0
2018-Jun-15 22:00N 30°02' W 094°02'0 0.0
2018-Jun-15 21:30N 30°02' W 094°02'0 0.0
2018-Jun-15 21:00N 30°02' W 094°02'0 0.0
2018-Jun-15 20:30N 30°02' W 094°02'0 0.0
2018-Jun-15 20:00N 30°02' W 094°02'0 0.0
2018-Jun-15 19:30N 30°02' W 094°02'0 0.0
2018-Jun-15 19:00N 30°02' W 094°02'0 0.0
2018-Jun-15 18:30N 30°02' W 094°02'0 0.0
2018-Jun-15 18:00N 30°02' W 094°02'0 0.0
2018-Jun-15 17:30N 30°02' W 094°02'0 0.0
2018-Jun-15 17:00N 30°02' W 094°02'0 0.0
2018-Jun-15 16:30N 30°02' W 094°02'0 0.0
2018-Jun-15 16:00N 30°02' W 094°02'0 0.0
2018-Jun-15 15:30N 30°02' W 094°02'0 0.0
2018-Jun-15 15:00N 30°02' W 094°02'0 0.0
2018-Jun-15 14:30N 30°02' W 094°02'0 0.0
2018-Jun-15 14:00N 30°02' W 094°02'0 0.0
2018-Jun-15 13:30N 30°02' W 094°02'0 0.0
2018-Jun-15 13:00N 30°02' W 094°02'0 0.0
2018-Jun-15 12:30N 30°02' W 094°02'0 0.0
2018-Jun-15 12:00N 30°02' W 094°02'0 0.0
2018-Jun-15 11:30N 30°02' W 094°02'0 0.0
2018-Jun-15 11:00N 30°02' W 094°02'0 0.0
2018-Jun-15 10:30N 30°02' W 094°02'0 0.0
2018-Jun-15 10:00N 30°02' W 094°02'0 0.0
2018-Jun-15 09:30N 30°02' W 094°02'0 0.0
2018-Jun-15 09:00N 30°02' W 094°02'0 0.0
2018-Jun-15 08:30N 30°02' W 094°02'0 0.0
2018-Jun-15 08:00N 30°02' W 094°02'0 0.0
2018-Jun-15 07:30N 30°02' W 094°02'0 0.0
2018-Jun-15 07:00N 30°02' W 094°02'0 0.0
2018-Jun-15 06:30N 30°02' W 094°02'0 0.0
2018-Jun-15 06:00N 30°02' W 094°02'0 0.0
2018-Jun-15 05:30N 30°02' W 094°02'0 0.0
2018-Jun-15 05:00N 30°02' W 094°02'0 0.0
2018-Jun-15 04:30N 30°02' W 094°02'0 0.0
2018-Jun-15 04:00N 30°02' W 094°02'0 0.0
2018-Jun-15 03:30N 30°02' W 094°02'0 0.2
2018-Jun-15 03:00N 30°02' W 094°02'1 2.8
2018-Jun-15 02:30N 30°01' W 094°01'3 6.0
2018-Jun-15 02:01N 30°01' W 093°58'3 6.7
2018-Jun-15 01:31N 29°59' W 093°54'3 5.9
2018-Jun-15 01:00N 29°57' W 093°52'4 8.4
2018-Jun-15 00:30N 29°54' W 093°54'3 6.7
2018-Jun-15 00:01N 29°51' W 093°57'3 6.9
2018-Jun-14 23:31N 29°48' W 093°57'4 7.8
2018-Jun-14 23:01N 29°45' W 093°54'4 8.8
2018-Jun-14 22:30N 29°42' W 093°51'612.5
2018-Jun-14 22:01N 29°36' W 093°48'612.7
2018-Jun-14 21:30N 29°31' W 093°43'612.5
2018-Jun-14 21:00N 29°26' W 093°40'  
2018-Jun-09 05:24N 28°54' W 094°15'511.9
2018-Jun-09 04:59N 28°56' W 094°21'5 9.5
2018-Jun-09 04:26N 28°60' W 094°25'1210.8
2018-Jun-09 03:19N 29°11' W 094°30'411.8
2018-Jun-09 03:00N 29°14' W 094°33'510.8
2018-Jun-09 02:30N 29°17' W 094°37'611.6
2018-Jun-09 02:00N 29°21' W 094°43'612.0
2018-Jun-09 01:30N 29°22' W 094°49'3 6.7
2018-Jun-09 01:00N 29°23' W 094°53'1 0.0
2018-Jun-08 13:30N 29°22' W 094°53'0 0.0
2018-Jun-08 12:57N 29°22' W 094°53'0 0.0
2018-Jun-08 12:21N 29°22' W 094°53'0 0.0
2018-Jun-08 11:45N 29°22' W 094°53'0 0.0
2018-Jun-08 11:27N 29°22' W 094°53'0 0.0
2018-Jun-08 10:57N 29°22' W 094°53'0 0.0
2018-Jun-08 10:27N 29°22' W 094°53'0 0.0
2018-Jun-08 09:51N 29°22' W 094°53'0 0.0
2018-Jun-08 09:21N 29°22' W 094°53'0 0.0
2018-Jun-08 08:57N 29°22' W 094°53'0 0.0
2018-Jun-08 08:24N 29°22' W 094°53'0 0.0
2018-Jun-08 07:09N 29°22' W 094°53'0 0.0
2018-Jun-08 06:51N 29°22' W 094°53'0 0.0
2018-Jun-08 05:21N 29°22' W 094°53'0 0.0
2018-Jun-08 04:51N 29°22' W 094°53'0 0.0
2018-Jun-08 04:27N 29°22' W 094°53'0 0.0
2018-Jun-08 03:57N 29°22' W 094°53'0 0.0
2018-Jun-08 03:21N 29°22' W 094°53'0 0.0
2018-Jun-08 02:03N 29°22' W 094°53'0 0.0
2018-Jun-08 01:48N 29°22' W 094°53'0 0.0
2018-Jun-08 01:06N 29°22' W 094°53'0 0.0
2018-Jun-08 00:45N 29°22' W 094°53'0 0.0
2018-Jun-07 23:33N 29°22' W 094°53'0 0.0
2018-Jun-07 23:21N 29°22' W 094°53'0 0.0
2018-Jun-07 22:57N 29°22' W 094°53'0 0.0
2018-Jun-07 22:27N 29°22' W 094°53'0 0.0
2018-Jun-07 19:51N 29°22' W 094°53'0 0.0
2018-Jun-07 19:27N 29°22' W 094°53'0 0.0
2018-Jun-07 18:51N 29°22' W 094°53'0 0.0
2018-Jun-07 16:42N 29°22' W 094°53'0 0.0
2018-Jun-07 15:15N 29°22' W 094°53'0 0.0
2018-Jun-07 14:57N 29°22' W 094°53'0 0.0
2018-Jun-07 13:57N 29°22' W 094°53'0 0.0
2018-Jun-07 13:30N 29°22' W 094°53'0 0.0
2018-Jun-07 12:57N 29°22' W 094°53'0 0.0
2018-Jun-07 12:21N 29°22' W 094°53'0 0.0
2018-Jun-07 11:54N 29°22' W 094°53'0 0.0
2018-Jun-07 11:30N 29°22' W 094°53'0 0.0
2018-Jun-07 10:54N 29°22' W 094°53'0 0.0
2018-Jun-07 10:27N 29°22' W 094°53'0 0.0
2018-Jun-07 09:57N 29°22' W 094°53'0 0.0
2018-Jun-07 09:24N 29°22' W 094°53'  

Dump ship's entire track history